createdAt,value
2024-03-02T00:00:28.693Z,0.30
2024-03-02T00:02:55.124Z,0.30
2024-03-02T00:05:23.248Z,0.40
2024-03-02T00:07:58.343Z,0.30
2024-03-02T00:10:43.293Z,0.40
2024-03-02T00:13:10.380Z,0.28
2024-03-02T00:15:53.499Z,0.30
2024-03-02T00:18:22.355Z,0.63
2024-03-02T00:20:48.996Z,0.20
2024-03-02T00:23:16.905Z,0.30
2024-03-02T00:25:50.774Z,0.22
2024-03-02T00:28:34.953Z,0.20
2024-03-02T00:31:15.755Z,0.30
2024-03-02T00:33:44.505Z,0.30
2024-03-02T00:36:12.661Z,0.20
2024-03-02T00:38:52.275Z,0.30
2024-03-02T00:41:28.002Z,0.20
2024-03-02T00:44:00.190Z,0.20
2024-03-02T00:46:28.894Z,0.20
2024-03-02T00:48:56.983Z,0.22
2024-03-02T00:51:25.765Z,0.40
2024-03-02T00:53:56.864Z,0.30
2024-03-02T00:56:24.776Z,0.20
2024-03-02T00:58:51.884Z,0.20
2024-03-02T01:01:20.730Z,0.30
2024-03-02T01:03:47.346Z,0.10
2024-03-02T01:06:13.961Z,0.10
2024-03-02T01:08:40.682Z,0.20
2024-03-02T01:11:07.590Z,0.15
2024-03-02T01:13:34.346Z,0.10
2024-03-02T01:16:02.261Z,0.20
2024-03-02T01:18:28.831Z,0.10
2024-03-02T01:20:58.293Z,0.10
2024-03-02T01:23:25.553Z,0.10
2024-03-02T01:25:53.110Z,0.10
2024-03-02T01:28:20.198Z,0.17
2024-03-02T01:30:46.695Z,0.10
2024-03-02T01:33:13.551Z,0.10
2024-03-02T01:35:40.129Z,0.10
2024-03-02T01:38:09.638Z,0.10
2024-03-02T01:40:37.158Z,0.10
2024-03-02T01:43:05.357Z,0.20
2024-03-02T01:45:32.300Z,0.10
2024-03-02T01:47:59.105Z,0.10
2024-03-02T01:50:27.449Z,0.10
2024-03-02T01:52:54.623Z,0.10
2024-03-02T01:55:21.066Z,0.10
2024-03-02T01:57:48.962Z,0.30
2024-03-02T02:00:16.398Z,0.20
2024-03-02T02:02:43.056Z,0.10
2024-03-02T02:05:10.153Z,0.10
2024-03-02T02:07:36.783Z,0.20
2024-03-02T02:10:04.528Z,0.10
2024-03-02T02:12:31.211Z,0.10
2024-03-02T02:14:57.784Z,0.10
2024-03-02T02:17:25.414Z,0.10
2024-03-02T02:19:51.892Z,0.10
2024-03-02T02:22:18.315Z,0.10
2024-03-02T02:24:44.836Z,0.10
2024-03-02T02:27:11.306Z,0.30
2024-03-02T02:29:37.867Z,0.10
2024-03-02T02:32:04.547Z,0.20
2024-03-02T02:34:30.966Z,0.10
2024-03-02T02:36:58.005Z,0.10
2024-03-02T02:39:24.753Z,0.10
2024-03-02T02:41:51.254Z,0.15
2024-03-02T02:44:17.721Z,0.10
2024-03-02T02:46:44.273Z,0.10
2024-03-02T02:49:10.729Z,0.10
2024-03-02T02:51:37.645Z,0.10
2024-03-02T02:54:04.200Z,0.15
2024-03-02T02:56:30.698Z,0.10
2024-03-02T02:58:57.141Z,0.10
2024-03-02T03:01:23.690Z,0.10
2024-03-02T03:03:50.268Z,0.13
2024-03-02T03:06:16.815Z,0.10
2024-03-02T03:08:43.345Z,0.10
2024-03-02T03:11:09.824Z,0.10
2024-03-02T03:13:36.280Z,0.20
2024-03-02T03:16:02.990Z,0.10
2024-03-02T03:18:29.589Z,0.13
2024-03-02T03:20:56.040Z,0.10
2024-03-02T03:23:22.508Z,0.10
2024-03-02T03:25:48.924Z,0.10
2024-03-02T03:28:15.451Z,0.10
2024-03-02T03:30:42.086Z,0.10
2024-03-02T03:33:08.630Z,0.10
2024-03-02T03:35:35.993Z,0.10
2024-03-02T03:38:02.462Z,0.10
2024-03-02T03:40:28.896Z,0.20
2024-03-02T03:42:57.162Z,0.10
2024-03-02T03:45:23.742Z,0.10
2024-03-02T03:47:50.233Z,0.22
2024-03-02T03:50:16.793Z,0.10
2024-03-02T03:52:43.268Z,0.13
2024-03-02T03:55:09.930Z,0.10
2024-03-02T03:57:36.821Z,0.10
2024-03-02T04:00:04.690Z,0.10
2024-03-02T04:02:31.310Z,0.10
2024-03-02T04:04:57.716Z,0.10
2024-03-02T04:07:24.177Z,0.10
2024-03-02T04:09:50.628Z,0.10
2024-03-02T04:12:17.083Z,0.10
2024-03-02T04:14:43.868Z,0.10
2024-03-02T04:17:10.799Z,0.10
2024-03-02T04:19:37.239Z,0.10
2024-03-02T04:22:12.353Z,0.20
2024-03-02T04:24:45.085Z,0.20
2024-03-02T04:27:11.555Z,0.30
2024-03-02T04:29:37.978Z,0.10
2024-03-02T04:32:04.665Z,0.10
2024-03-02T04:34:31.487Z,0.10
2024-03-02T04:36:58.149Z,0.10
2024-03-02T04:39:25.988Z,0.10
2024-03-02T04:41:52.450Z,0.10
2024-03-02T04:44:18.909Z,0.17
2024-03-02T04:46:45.531Z,0.10
2024-03-02T04:49:12.199Z,0.30
2024-03-02T04:51:38.778Z,0.10
2024-03-02T04:54:05.629Z,0.10
2024-03-02T04:56:32.063Z,0.10
2024-03-02T04:58:59.207Z,0.10
2024-03-02T05:01:25.703Z,0.20
2024-03-02T05:03:52.354Z,0.22
2024-03-02T05:06:18.920Z,0.10
2024-03-02T05:08:46.031Z,0.10
2024-03-02T05:11:31.235Z,0.10
2024-03-02T05:13:57.699Z,0.20
2024-03-02T05:16:24.129Z,0.10
2024-03-02T05:18:51.010Z,0.17
2024-03-02T05:21:17.620Z,0.20
2024-03-02T05:23:44.130Z,0.10
2024-03-02T05:26:13.712Z,0.10
2024-03-02T05:28:40.227Z,0.10
2024-03-02T05:31:06.694Z,0.17
2024-03-02T05:33:34.431Z,0.15
2024-03-02T05:36:02.961Z,0.10
2024-03-02T05:38:29.370Z,0.10
2024-03-02T05:40:55.768Z,0.10
2024-03-02T05:43:22.212Z,0.10
2024-03-02T05:45:48.713Z,0.10
2024-03-02T05:48:15.165Z,0.20
2024-03-02T05:50:41.676Z,0.10
2024-03-02T05:53:08.564Z,0.10
2024-03-02T05:55:35.883Z,0.20
2024-03-02T05:58:08.290Z,0.13
2024-03-02T06:00:34.882Z,0.10
2024-03-02T06:03:01.418Z,0.20
2024-03-02T06:05:28.142Z,0.10
2024-03-02T06:07:54.689Z,0.20
2024-03-02T06:10:21.917Z,0.10
2024-03-02T06:12:48.527Z,0.10
2024-03-02T06:15:15.094Z,0.43
2024-03-02T06:17:41.561Z,0.20
2024-03-02T06:20:09.595Z,0.10
2024-03-02T06:22:36.319Z,0.10
2024-03-02T06:25:02.858Z,0.20
2024-03-02T06:27:29.402Z,0.20
2024-03-02T06:29:55.997Z,0.32
2024-03-02T06:32:22.436Z,0.10
2024-03-02T06:34:48.829Z,0.10
2024-03-02T06:37:17.069Z,0.10
2024-03-02T06:39:44.520Z,0.10
2024-03-02T06:42:10.984Z,0.30
2024-03-02T06:44:37.391Z,0.23
2024-03-02T06:47:03.914Z,0.10
2024-03-02T06:49:30.379Z,0.10
2024-03-02T06:51:56.868Z,0.10
2024-03-02T06:54:23.380Z,0.15
2024-03-02T06:56:50.021Z,0.30
2024-03-02T06:59:16.544Z,0.10
2024-03-02T07:01:44.589Z,0.43
2024-03-02T07:04:11.196Z,0.20
2024-03-02T07:06:37.644Z,0.30
2024-03-02T07:09:04.277Z,0.20
2024-03-02T07:11:30.805Z,0.10
2024-03-02T07:13:57.322Z,0.10
2024-03-02T07:16:31.040Z,0.20
2024-03-02T07:18:57.990Z,0.17
2024-03-02T07:21:24.751Z,0.30
2024-03-02T07:23:51.898Z,0.20
2024-03-02T07:28:50.111Z,0.47
2024-03-02T07:31:16.655Z,0.13
2024-03-02T07:33:45.382Z,0.10
2024-03-02T07:36:12.178Z,0.20
2024-03-02T07:38:38.746Z,0.20
2024-03-02T07:41:05.673Z,0.10
2024-03-02T07:43:35.124Z,0.20
2024-03-02T07:46:01.855Z,0.10
2024-03-02T07:48:28.509Z,0.17
2024-03-02T07:50:54.959Z,0.10
2024-03-02T07:53:21.357Z,0.10
2024-03-02T07:55:47.820Z,0.20
2024-03-02T07:58:14.404Z,0.10
2024-03-02T08:00:41.482Z,0.20
2024-03-02T08:03:10.813Z,0.20
2024-03-02T08:05:37.269Z,0.22
2024-03-02T08:08:03.910Z,0.20
2024-03-02T08:10:30.339Z,0.10
2024-03-02T08:12:56.817Z,0.10
2024-03-02T08:15:23.498Z,0.10
2024-03-02T08:17:50.876Z,0.17
2024-03-02T08:20:17.624Z,0.10
2024-03-02T08:22:44.239Z,0.20
2024-03-02T08:25:11.084Z,0.20
2024-03-02T08:27:38.098Z,0.20
2024-03-02T08:30:07.642Z,0.10
2024-03-02T08:32:34.391Z,0.10
2024-03-02T08:35:00.973Z,0.28
2024-03-02T08:37:27.797Z,0.20
2024-03-02T08:39:54.587Z,0.20
2024-03-02T08:42:21.254Z,0.20
2024-03-02T08:44:47.862Z,0.10
2024-03-02T08:47:14.531Z,0.10
2024-03-02T08:49:40.991Z,0.20
2024-03-02T08:52:07.549Z,0.22
2024-03-02T08:54:36.745Z,0.20
2024-03-02T08:57:03.517Z,0.20
2024-03-02T08:59:30.091Z,0.10
2024-03-02T09:01:56.605Z,0.17
2024-03-02T09:04:26.090Z,0.35
2024-03-02T09:06:54.256Z,0.20
2024-03-02T09:09:20.881Z,0.30
2024-03-02T09:11:48.169Z,0.20
2024-03-02T09:14:16.117Z,0.10
2024-03-02T09:16:43.521Z,0.35
2024-03-02T09:19:10.781Z,0.15
2024-03-02T09:21:37.403Z,0.35
2024-03-02T09:24:04.709Z,0.10
2024-03-02T09:26:31.320Z,0.10
2024-03-02T09:28:57.815Z,0.63
2024-03-02T09:31:24.328Z,0.40
2024-03-02T09:33:50.889Z,0.95
2024-03-02T09:36:19.256Z,0.10
2024-03-02T09:38:46.291Z,0.20
2024-03-02T09:41:13.391Z,0.28
2024-03-02T09:43:40.420Z,0.10
2024-03-02T09:46:07.731Z,0.30
2024-03-02T09:48:34.262Z,0.30
2024-03-02T09:51:01.687Z,0.20
2024-03-02T09:53:33.061Z,0.20
2024-03-02T09:56:02.802Z,0.10
2024-03-02T09:58:30.174Z,0.30
2024-03-02T10:00:56.731Z,0.22
2024-03-02T10:03:25.782Z,0.20
2024-03-02T10:05:52.823Z,0.20
2024-03-02T10:08:19.448Z,0.13
2024-03-02T10:10:45.952Z,0.10
2024-03-02T10:13:14.275Z,0.30
2024-03-02T10:15:42.034Z,0.20
2024-03-02T10:18:11.864Z,0.25
2024-03-02T10:20:39.030Z,0.10
2024-03-02T10:23:15.851Z,0.20
2024-03-02T10:25:51.267Z,0.65
2024-03-02T10:28:24.062Z,0.30
2024-03-02T10:30:52.518Z,0.20
2024-03-02T10:33:19.174Z,0.40
2024-03-02T10:35:45.904Z,0.30
2024-03-02T10:38:12.754Z,0.20
2024-03-02T10:40:39.235Z,0.38
2024-03-02T10:43:07.008Z,0.22
2024-03-02T10:45:33.776Z,0.30
2024-03-02T10:48:03.230Z,2.55
2024-03-02T10:50:30.088Z,0.40
2024-03-02T10:52:56.546Z,0.20
2024-03-02T10:55:23.279Z,0.20
2024-03-02T10:57:53.328Z,0.10
2024-03-02T11:00:25.812Z,0.20
2024-03-02T11:02:57.222Z,0.10
2024-03-02T11:05:37.070Z,0.10
2024-03-02T11:08:08.480Z,0.30
2024-03-02T11:10:42.921Z,0.20
2024-03-02T11:13:15.839Z,0.20
2024-03-02T11:15:45.101Z,1.55
2024-03-02T11:18:12.927Z,0.22
2024-03-02T11:20:40.921Z,0.20
2024-03-02T11:23:08.794Z,0.95
2024-03-02T11:25:35.893Z,0.73
2024-03-02T11:28:07.847Z,0.53
2024-03-02T11:30:35.268Z,0.20
2024-03-02T11:33:11.430Z,0.30
2024-03-02T11:35:51.595Z,0.30
2024-03-02T11:38:20.085Z,0.20
2024-03-02T11:40:46.610Z,0.30
2024-03-02T11:43:13.474Z,0.20
2024-03-02T11:45:45.004Z,0.30
2024-03-02T11:48:15.177Z,0.20
2024-03-02T11:50:50.855Z,0.50
2024-03-02T11:53:18.356Z,0.28
2024-03-02T11:55:48.309Z,0.10
2024-03-02T11:58:16.080Z,0.20
2024-03-02T12:00:42.687Z,0.20
2024-03-02T12:03:10.889Z,0.20
2024-03-02T12:05:37.616Z,0.20
2024-03-02T12:08:05.898Z,0.20
2024-03-02T12:10:32.796Z,0.32
2024-03-02T12:13:05.110Z,0.20
2024-03-02T12:15:36.146Z,0.13
2024-03-02T12:18:03.081Z,0.20
2024-03-02T12:20:31.028Z,0.20
2024-03-02T12:23:00.358Z,0.30
2024-03-02T12:25:28.121Z,0.13
2024-03-02T12:28:00.749Z,0.20
2024-03-02T12:30:30.553Z,0.30
2024-03-02T12:32:57.474Z,0.20
2024-03-02T12:35:26.072Z,0.20
2024-03-02T12:37:54.287Z,0.40
2024-03-02T12:40:23.836Z,0.30
2024-03-02T12:42:51.837Z,0.30
2024-03-02T12:45:25.067Z,0.20
2024-03-02T12:47:52.866Z,0.10
2024-03-02T12:50:19.956Z,0.20
2024-03-02T12:52:54.500Z,0.25
2024-03-02T12:55:23.094Z,0.22
2024-03-02T12:57:52.326Z,0.20
2024-03-02T13:00:20.481Z,0.30
2024-03-02T13:02:47.582Z,0.25
2024-03-02T13:05:14.673Z,0.30
2024-03-02T13:07:42.211Z,0.20
2024-03-02T13:10:09.897Z,0.20
2024-03-02T13:12:38.056Z,0.57
2024-03-02T13:15:06.281Z,0.20
2024-03-02T13:17:37.984Z,0.40
2024-03-02T13:20:11.623Z,0.30
2024-03-02T13:22:38.453Z,0.20
2024-03-02T13:25:05.961Z,0.20
2024-03-02T13:27:33.580Z,0.20
2024-03-02T13:30:00.357Z,0.20
2024-03-02T13:32:27.128Z,0.55
2024-03-02T13:34:53.731Z,0.43
2024-03-02T13:37:22.388Z,0.30
2024-03-02T13:39:48.960Z,0.20
2024-03-02T13:42:16.393Z,0.20
2024-03-02T13:44:51.074Z,0.25
2024-03-02T13:47:18.128Z,0.20
2024-03-02T13:49:46.965Z,0.63
2024-03-02T13:52:20.229Z,0.20
2024-03-02T13:54:48.723Z,0.30
2024-03-02T13:57:15.554Z,0.25
2024-03-02T13:59:43.775Z,0.20
2024-03-02T14:02:10.697Z,0.30
2024-03-02T14:04:38.179Z,0.20
2024-03-02T14:07:08.232Z,1.40
2024-03-02T14:09:34.958Z,0.22
2024-03-02T14:12:01.857Z,0.30
2024-03-02T14:14:28.351Z,0.40
2024-03-02T14:17:01.721Z,0.25
2024-03-02T14:19:28.520Z,0.30
2024-03-02T14:21:55.198Z,0.50
2024-03-02T14:24:25.197Z,0.30
2024-03-02T14:26:51.920Z,0.20
2024-03-02T14:29:20.064Z,0.20
2024-03-02T14:31:49.216Z,0.30
2024-03-02T14:34:16.375Z,0.20
2024-03-02T14:36:44.961Z,0.30
2024-03-02T14:39:12.338Z,0.40
2024-03-02T14:41:38.928Z,0.20
2024-03-02T14:44:05.483Z,0.38
2024-03-02T14:46:32.093Z,0.20
2024-03-02T14:48:59.054Z,0.20
2024-03-02T14:51:25.661Z,0.30
2024-03-02T14:53:52.712Z,0.20
2024-03-02T14:56:19.221Z,0.30
2024-03-02T14:58:46.622Z,0.30
2024-03-02T15:01:13.466Z,0.20
2024-03-02T15:03:40.944Z,0.20
2024-03-02T15:06:08.794Z,0.30
2024-03-02T15:08:35.286Z,0.20
2024-03-02T15:11:02.377Z,0.30
2024-03-02T15:13:28.930Z,0.40
2024-03-02T15:15:55.490Z,0.20
2024-03-02T15:18:22.174Z,0.35
2024-03-02T15:20:48.665Z,0.30
2024-03-02T15:23:15.107Z,0.20
2024-03-02T15:25:42.258Z,0.20
2024-03-02T15:28:08.800Z,0.20
2024-03-02T15:30:35.409Z,0.30
2024-03-02T15:33:01.887Z,0.63
2024-03-02T15:35:28.544Z,0.20
2024-03-02T15:37:54.993Z,0.30
2024-03-02T15:40:21.602Z,0.20
2024-03-02T15:42:48.146Z,0.20
2024-03-02T15:45:14.640Z,0.20
2024-03-02T15:47:41.388Z,0.20
2024-03-02T15:50:08.227Z,0.22
2024-03-02T15:52:34.790Z,1.00
2024-03-02T15:55:02.685Z,0.20
2024-03-02T15:57:29.199Z,0.20
2024-03-02T15:59:55.664Z,0.30
2024-03-02T16:02:22.157Z,0.40
2024-03-02T16:04:48.608Z,0.20
2024-03-02T16:07:15.366Z,0.20
2024-03-02T16:09:41.976Z,0.20
2024-03-02T16:12:08.568Z,0.73
2024-03-02T16:14:35.745Z,0.55
2024-03-02T16:17:03.085Z,0.20
2024-03-02T16:19:33.080Z,0.30
2024-03-02T16:22:00.310Z,0.20
2024-03-02T16:24:27.171Z,0.50
2024-03-02T16:26:53.696Z,0.30
2024-03-02T16:29:20.148Z,0.20
2024-03-02T16:31:46.620Z,0.50
2024-03-02T16:34:13.360Z,0.52
2024-03-02T16:36:41.691Z,0.40
2024-03-02T16:39:09.891Z,0.40
2024-03-02T16:41:36.554Z,0.60
2024-03-02T16:44:06.671Z,0.40
2024-03-02T16:46:33.549Z,0.30
2024-03-02T16:49:00.130Z,0.40
2024-03-02T16:51:26.744Z,0.50
2024-03-02T16:53:53.188Z,0.40
2024-03-02T16:56:19.621Z,0.60
2024-03-02T16:58:46.047Z,0.28
2024-03-02T17:01:12.577Z,0.40
2024-03-02T17:03:39.118Z,0.38
2024-03-02T17:06:05.658Z,0.50
2024-03-02T17:08:32.217Z,0.60
2024-03-02T17:10:58.770Z,1.13
2024-03-02T17:13:25.331Z,0.80
2024-03-02T17:15:51.803Z,0.40
2024-03-02T17:18:18.456Z,0.47
2024-03-02T17:20:45.099Z,0.70
2024-03-02T17:23:11.716Z,0.60
2024-03-02T17:25:38.155Z,0.90
2024-03-02T17:28:25.602Z,0.60
2024-03-02T17:30:53.034Z,0.50
2024-03-02T17:33:19.826Z,0.60
2024-03-02T17:35:48.626Z,0.98
2024-03-02T17:38:15.448Z,0.50
2024-03-02T17:40:42.964Z,0.43
2024-03-02T17:43:09.738Z,0.40
2024-03-02T17:45:36.488Z,0.60
2024-03-02T17:48:03.114Z,0.73
2024-03-02T17:50:30.146Z,0.52
2024-03-02T17:52:56.627Z,0.50
2024-03-02T17:55:23.162Z,0.40
2024-03-02T17:57:50.430Z,0.50
2024-03-02T18:00:17.441Z,0.55
2024-03-02T18:02:44.400Z,0.83
2024-03-02T18:05:11.086Z,0.70
2024-03-02T18:07:38.319Z,0.77
2024-03-02T18:10:06.149Z,0.43
2024-03-02T18:12:33.118Z,0.68
2024-03-02T18:14:59.592Z,0.60
2024-03-02T18:17:26.184Z,0.73
2024-03-02T18:19:53.478Z,0.63
2024-03-02T18:22:20.782Z,0.60
2024-03-02T18:24:47.620Z,1.00
2024-03-02T18:27:14.257Z,1.93
2024-03-02T18:29:41.021Z,2.72
2024-03-02T18:32:08.140Z,3.53
2024-03-02T18:34:37.243Z,2.35
2024-03-02T18:37:05.912Z,1.45
2024-03-02T18:39:32.836Z,1.10
2024-03-02T18:41:59.335Z,0.70
2024-03-02T18:44:25.900Z,0.65
2024-03-02T18:46:52.445Z,0.47
2024-03-02T18:49:19.254Z,0.57
2024-03-02T18:51:45.903Z,0.60
2024-03-02T18:54:17.362Z,0.93
2024-03-02T18:56:43.986Z,0.70
2024-03-02T18:59:10.475Z,0.40
2024-03-02T19:01:37.060Z,0.65
2024-03-02T19:04:03.902Z,0.47
2024-03-02T19:06:30.476Z,0.50
2024-03-02T19:08:58.847Z,0.50
2024-03-02T19:11:25.328Z,0.75
2024-03-02T19:13:53.069Z,0.80
2024-03-02T19:16:19.700Z,1.10
2024-03-02T19:18:46.159Z,0.90
2024-03-02T19:21:12.658Z,0.85
2024-03-02T19:23:44.067Z,1.10
2024-03-02T19:26:18.503Z,0.40
2024-03-02T19:28:45.794Z,0.80
2024-03-02T19:31:12.481Z,0.60
2024-03-02T19:33:39.035Z,1.02
2024-03-02T19:36:05.649Z,0.50
2024-03-02T19:38:34.746Z,0.32
2024-03-02T19:41:02.062Z,0.50
2024-03-02T19:43:28.479Z,0.43
2024-03-02T19:45:54.990Z,0.70
2024-03-02T19:48:21.475Z,0.60
2024-03-02T19:50:48.951Z,0.47
2024-03-02T19:53:15.642Z,0.30
2024-03-02T19:55:45.042Z,0.50
2024-03-02T19:58:11.627Z,1.00
2024-03-02T20:00:38.288Z,0.60
2024-03-02T20:03:04.906Z,0.82
2024-03-02T20:05:31.408Z,0.80
2024-03-02T20:07:58.084Z,1.30
2024-03-02T20:10:24.610Z,1.08
2024-03-02T20:12:51.147Z,1.00
2024-03-02T20:15:19.735Z,0.90
2024-03-02T20:17:47.367Z,0.63
2024-03-02T20:20:14.972Z,0.75
2024-03-02T20:22:41.417Z,1.15
2024-03-02T20:25:08.159Z,0.60
2024-03-02T20:27:34.720Z,0.73
2024-03-02T20:30:01.190Z,0.70
2024-03-02T20:32:27.675Z,0.55
2024-03-02T20:34:54.109Z,0.70
2024-03-02T20:37:24.815Z,0.60
2024-03-02T20:39:55.996Z,0.80
2024-03-02T20:42:22.548Z,0.50
2024-03-02T20:44:48.999Z,0.70
2024-03-02T20:47:15.485Z,0.70
2024-03-02T20:49:43.495Z,0.70
2024-03-02T20:52:10.727Z,0.63
2024-03-02T20:54:38.070Z,0.60
2024-03-02T20:57:07.494Z,0.60
2024-03-02T20:59:34.745Z,0.70
2024-03-02T21:02:01.877Z,0.70
2024-03-02T21:04:28.422Z,0.75
2024-03-02T21:06:55.178Z,0.73
2024-03-02T21:09:21.676Z,0.60
2024-03-02T21:11:49.552Z,0.93
2024-03-02T21:14:16.229Z,0.93
2024-03-02T21:16:43.429Z,0.70
2024-03-02T21:19:10.246Z,0.77
2024-03-02T21:21:38.945Z,0.70
2024-03-02T21:24:05.591Z,0.70
2024-03-02T21:26:32.373Z,0.65
2024-03-02T21:28:58.811Z,0.70
2024-03-02T21:31:25.368Z,0.90
2024-03-02T21:33:51.897Z,0.52
2024-03-02T21:36:18.411Z,0.80
2024-03-02T21:38:44.927Z,0.50
2024-03-02T21:41:11.353Z,0.40
2024-03-02T21:43:38.506Z,0.50
2024-03-02T21:46:05.093Z,0.40
2024-03-02T21:48:31.571Z,0.68
2024-03-02T21:50:58.068Z,0.50
2024-03-02T21:53:24.505Z,0.55
2024-03-02T21:55:50.919Z,0.40
2024-03-02T21:58:17.401Z,0.40
2024-03-02T22:00:43.934Z,0.40
2024-03-02T22:03:10.366Z,0.63
2024-03-02T22:05:36.932Z,0.68
2024-03-02T22:08:03.432Z,0.50
2024-03-02T22:10:30.720Z,0.68
2024-03-02T22:12:57.291Z,0.52
2024-03-02T22:15:23.959Z,0.60
2024-03-02T22:17:50.590Z,0.70
2024-03-02T22:20:17.044Z,0.60
2024-03-02T22:22:43.483Z,0.52
2024-03-02T22:25:10.411Z,0.40
2024-03-02T22:27:40.833Z,0.45
2024-03-02T22:30:09.253Z,0.57
2024-03-02T22:32:35.754Z,0.60
2024-03-02T22:35:02.327Z,0.45
2024-03-02T22:37:28.772Z,0.50
2024-03-02T22:39:55.283Z,0.40
2024-03-02T22:42:21.715Z,0.40
2024-03-02T22:44:48.140Z,0.50
2024-03-02T22:47:14.570Z,0.63
2024-03-02T22:49:41.017Z,0.80
2024-03-02T22:52:07.571Z,0.65
2024-03-02T22:54:34.096Z,0.40
2024-03-02T22:57:01.989Z,0.60
2024-03-02T22:59:28.499Z,0.50
2024-03-02T23:01:55.552Z,0.65
2024-03-02T23:04:22.219Z,0.70
2024-03-02T23:06:49.558Z,0.90
2024-03-02T23:09:16.106Z,0.70
2024-03-02T23:11:42.594Z,0.80
2024-03-02T23:14:09.241Z,0.93
2024-03-02T23:16:38.200Z,0.80
2024-03-02T23:19:04.918Z,0.70
2024-03-02T23:21:31.581Z,0.60
2024-03-02T23:23:58.824Z,0.95
2024-03-02T23:26:26.062Z,0.95
2024-03-02T23:28:52.593Z,1.10
2024-03-02T23:31:19.635Z,0.82
2024-03-02T23:33:48.262Z,0.83
2024-03-02T23:36:15.099Z,0.70
2024-03-02T23:38:41.551Z,1.38
2024-03-02T23:41:07.977Z,0.80
2024-03-02T23:43:36.271Z,0.90
2024-03-02T23:46:02.805Z,1.10
2024-03-02T23:48:29.266Z,1.00
2024-03-02T23:50:55.721Z,0.73
2024-03-02T23:53:22.206Z,1.13
2024-03-02T23:55:52.596Z,1.27
2024-03-02T23:58:20.564Z,0.93
